In Rescue
 
Open Full Screen Window  High Contrast Mode
Wind Gusting 00 knots
05
March 19, 2019 7:37 PM EDT
Weather Information
Wind Direction
  220 °
Wind Speed
  05 kt (6 mph)
Wind Gust
  00 kt (0 mph)
Altimeter
30.31 in
Visibility
10 SM
Temperature
08° C
46° F
Dewpoint
-09° C
16° F
Humidity
29%
Sky Condition
Scattered @ 6,000 ft
VFR

METAR KVLL 192337Z AUTO 22005KT 10SM SCT060 08/M09 A3031 RMK AO2 T00751086

FAA Disclaimer: The data displayed is for advisory purposes only and is not to be used for flight planning or operations.